Time;durP1;ratioP1;P1;durP2;ratioP2;P2;SDS_P1;SDS_P2;PMS_P1;PMS_P2;Temp;Humidity;BMP_temperature;BMP_pressure;BME280_temperature;BME280_humidity;BME280_pressure;Samples;Min_cycle;Max_cycle;Signal;HPM_P1;HPM_P2
2022/05/15 00:01:39;;;;;;;4.55;2.00;;;;;;;17.34;60.03;96836.66;10464234;28;20036;-24
2022/05/15 00:06:39;;;;;;;5.63;1.90;;;;;;;17.33;59.80;96834.97;10491278;28;20149;-22
2022/05/15 00:11:40;;;;;;;4.13;1.80;;;;;;;17.37;59.54;96818.97;10462367;28;20051;-22
2022/05/15 00:16:41;;;;;;;6.25;1.52;;;;;;;17.30;59.81;96812.16;10451207;28;20552;-22
2022/05/15 00:21:41;;;;;;;2.17;1.58;;;;;;;17.24;59.51;96815.50;10459799;28;20422;-22
2022/05/15 00:26:41;;;;;;;4.63;1.85;;;;;;;17.23;59.57;96810.44;10461740;28;20620;-22
2022/05/15 00:31:42;;;;;;;3.95;1.65;;;;;;;17.21;59.75;96809.56;10452124;28;20025;-22
2022/05/15 00:36:42;;;;;;;2.10;1.53;;;;;;;17.20;59.44;96805.34;10450913;28;20543;-23
2022/05/15 00:41:43;;;;;;;3.53;1.57;;;;;;;17.18;59.74;96804.50;10451128;28;20392;-22
2022/05/15 00:46:43;;;;;;;5.55;1.88;;;;;;;17.17;59.60;96801.09;10450718;28;20032;-25
2022/05/15 00:51:51;;;;;;;4.20;1.87;;;;;;;17.02;59.64;96782.47;10450520;28;20033;-25
2022/05/15 00:57:03;;;;;;;5.70;1.80;;;;;;;17.13;59.64;96798.56;10448435;28;20331;-23
2022/05/15 01:02:04;;;;;;;7.15;2.35;;;;;;;17.09;59.68;96800.22;10462501;28;20029;-22
2022/05/15 01:07:05;;;;;;;2.58;1.50;;;;;;;17.07;59.54;96790.94;10490782;28;20287;-22
2022/05/15 01:12:06;;;;;;;3.35;1.80;;;;;;;17.07;59.59;96791.78;10457997;28;20397;-24
2022/05/15 01:17:07;;;;;;;4.20;1.90;;;;;;;17.04;59.42;96790.91;10448030;28;20514;-24
2022/05/15 01:22:11;;;;;;;2.13;1.50;;;;;;;17.07;59.37;96790.94;10461979;28;20029;-23
2022/05/15 01:27:13;;;;;;;4.93;2.20;;;;;;;17.06;59.22;96790.09;10454881;28;20423;-24
2022/05/15 01:32:14;;;;;;;4.50;2.25;;;;;;;17.00;59.55;96791.75;10456331;28;20319;-23
2022/05/15 01:37:14;;;;;;;5.93;1.95;;;;;;;16.99;59.61;96790.88;10489422;28;20036;-22
2022/05/15 01:42:15;;;;;;;6.05;1.83;;;;;;;17.00;59.42;96789.19;10453938;28;20449;-22
2022/05/15 01:47:16;;;;;;;4.47;1.90;;;;;;;17.00;59.54;96794.25;10455584;28;20398;-22
2022/05/15 01:52:17;;;;;;;2.53;1.60;;;;;;;16.97;59.17;96787.50;10489512;28;20032;-23
2022/05/15 01:57:18;;;;;;;3.90;1.83;;;;;;;17.12;58.89;96789.28;10453415;28;20496;-23
2022/05/15 02:02:18;;;;;;;5.03;1.80;;;;;;;17.04;58.93;96793.44;10451024;28;20060;-24
2022/05/15 02:07:20;;;;;;;3.83;1.98;;;;;;;17.14;58.23;96793.50;10447687;28;20040;-22
2022/05/15 02:12:20;;;;;;;3.53;1.90;;;;;;;17.07;58.68;96790.94;10446091;28;20040;-22
2022/05/15 02:17:21;;;;;;;2.90;1.95;;;;;;;16.98;58.52;96788.34;10448780;28;20323;-23
2022/05/15 02:22:22;;;;;;;3.53;2.03;;;;;;;16.96;58.63;96782.41;10461276;28;20080;-23
2022/05/15 02:27:24;;;;;;;2.63;1.95;;;;;;;16.91;58.79;96782.38;10454489;28;20086;-23
2022/05/15 02:32:24;;;;;;;4.38;2.13;;;;;;;16.94;58.77;96784.97;10454401;28;20094;-22
2022/05/15 02:37:25;;;;;;;3.40;2.20;;;;;;;17.04;58.15;96780.78;10454733;28;20063;-22
2022/05/15 02:42:26;;;;;;;3.40;1.80;;;;;;;16.88;58.49;96779.84;10453865;28;20068;-24
2022/05/15 02:47:26;;;;;;;6.47;1.73;;;;;;;17.11;57.98;96792.66;10454250;28;20054;-23
2022/05/15 02:52:27;;;;;;;3.35;1.90;;;;;;;16.96;58.19;96787.47;10453548;28;20033;-22
2022/05/15 02:57:28;;;;;;;7.80;2.23;;;;;;;16.96;58.17;96787.47;10481813;28;20028;-22
2022/05/15 03:02:28;;;;;;;4.40;2.10;;;;;;;17.10;57.69;96791.81;10472893;28;20291;-23
2022/05/15 03:07:28;;;;;;;3.58;1.40;;;;;;;17.08;57.71;96795.16;10472094;28;20025;-22
2022/05/15 03:12:29;;;;;;;5.07;1.63;;;;;;;16.94;57.81;96789.16;10454131;28;20037;-23
2022/05/15 03:17:30;;;;;;;5.93;2.40;;;;;;;16.93;58.14;96788.31;10465155;28;20275;-23
2022/05/15 03:22:31;;;;;;;4.40;1.63;;;;;;;16.88;57.71;96799.22;10493739;28;20036;-23
2022/05/15 03:27:31;;;;;;;2.40;1.48;;;;;;;16.89;57.74;96795.88;10494256;28;20036;-23
2022/05/15 03:32:31;;;;;;;2.77;1.50;;;;;;;16.85;57.37;96792.47;10492918;28;20036;-22
2022/05/15 03:37:32;;;;;;;3.15;2.00;;;;;;;16.96;56.81;96792.53;10452685;28;20032;-22
2022/05/15 03:42:32;;;;;;;2.45;1.45;;;;;;;16.99;56.90;96795.94;10451024;28;20045;-22
2022/05/15 03:47:35;;;;;;;6.70;1.35;;;;;;;16.92;57.28;96801.78;10452717;28;20037;-24
2022/05/15 03:52:35;;;;;;;4.72;1.83;;;;;;;16.98;56.78;96801.00;10451350;28;20120;-23
2022/05/15 03:57:36;;;;;;;5.40;1.93;;;;;;;17.00;56.60;96789.19;10489688;28;20032;-24
2022/05/15 04:02:38;;;;;;;3.20;1.85;;;;;;;16.97;56.77;96794.22;10492103;28;20286;-22
2022/05/15 04:07:56;;;;;;;3.75;1.65;;;;;;;17.01;56.69;96786.69;10450793;28;20055;-23
2022/05/15 04:12:57;;;;;;;3.65;1.30;;;;;;;16.94;56.45;96776.50;10449594;28;20439;-22
2022/05/15 04:17:57;;;;;;;1.70;1.40;;;;;;;17.04;56.77;96785.84;10451991;28;20060;-23
2022/05/15 04:22:58;;;;;;;3.40;1.40;;;;;;;16.87;56.91;96780.69;10469109;28;20725;-23
2022/05/15 04:27:59;;;;;;;1.42;1.33;;;;;;;16.83;56.88;96776.44;10450446;28;20279;-22
2022/05/15 04:32:59;;;;;;;3.97;1.60;;;;;;;16.99;56.69;96777.41;10449592;28;20029;-23
2022/05/15 04:38:00;;;;;;;3.08;1.60;;;;;;;17.05;56.59;96785.00;10450457;28;20650;-22
2022/05/15 04:43:00;;;;;;;3.55;1.90;;;;;;;17.10;56.36;96785.91;10451126;28;20041;-23
2022/05/15 04:48:00;;;;;;;4.10;1.75;;;;;;;16.97;56.82;96789.16;10450413;28;20025;-24
2022/05/15 04:53:01;;;;;;;2.77;1.57;;;;;;;17.06;56.08;96772.38;10450595;28;20116;-25
2022/05/15 04:58:01;;;;;;;4.07;1.47;;;;;;;17.33;56.45;96789.41;10450898;28;20181;-24
2022/05/15 05:03:02;;;;;;;5.32;1.60;;;;;;;17.40;56.00;96781.06;10455977;28;20036;-23
2022/05/15 05:08:05;;;;;;;1.63;1.35;;;;;;;17.35;56.26;96777.59;10465069;28;20094;-23
2022/05/15 05:13:06;;;;;;;7.13;1.90;;;;;;;17.19;56.68;96775.81;10489499;28;20044;-24
2022/05/15 05:18:07;;;;;;;4.50;1.88;;;;;;;17.06;56.78;96774.91;10474958;28;20029;-22
2022/05/15 05:23:07;;;;;;;2.67;1.48;;;;;;;17.13;57.00;96781.69;10468460;28;20111;-23
2022/05/15 05:28:09;;;;;;;4.93;1.90;;;;;;;17.08;57.43;96780.00;10449351;28;20037;-22
2022/05/15 05:33:09;;;;;;;3.47;1.80;;;;;;;17.07;57.50;96790.94;10463937;28;20070;-22
2022/05/15 05:38:10;;;;;;;2.93;1.50;;;;;;;17.10;57.70;96788.41;10489551;28;20135;-24
2022/05/15 05:43:10;;;;;;;2.83;1.90;;;;;;;17.37;57.37;96781.03;10448981;28;20330;-22
2022/05/15 05:48:11;;;;;;;3.05;1.58;;;;;;;17.39;57.09;96784.41;10454870;28;20112;-23
2022/05/15 05:53:11;;;;;;;2.17;1.30;;;;;;;17.24;57.94;96779.25;10471170;28;20067;-22
2022/05/15 05:58:12;;;;;;;2.65;2.00;;;;;;;17.04;59.19;96786.72;10449545;28;20044;-23
2022/05/15 06:08:31;;;;;;;3.28;2.30;;;;;;;17.11;58.61;96772.41;10456744;28;20032;-22
2022/05/15 06:13:32;;;;;;;3.63;2.00;;;;;;;17.11;59.02;96774.94;10455959;28;20029;-22
2022/05/15 06:18:33;;;;;;;4.10;2.13;;;;;;;17.10;59.38;96770.72;10456284;28;20033;-23
2022/05/15 06:23:34;;;;;;;4.47;2.00;;;;;;;17.07;59.79;96771.53;10479056;28;20044;-23
2022/05/15 06:28:34;;;;;;;3.87;2.40;;;;;;;17.09;60.70;96771.56;10497351;28;20146;-23
2022/05/15 06:33:35;;;;;;;5.87;2.03;;;;;;;17.07;60.29;96776.59;10484304;28;20299;-22
2022/05/15 06:38:35;;;;;;;3.43;1.67;;;;;;;17.17;60.07;96767.41;10492359;28;20322;-23
2022/05/15 06:43:36;;;;;;;2.78;1.90;;;;;;;17.21;60.26;96772.47;10455365;28;20039;-23
2022/05/15 06:48:38;;;;;;;4.57;2.00;;;;;;;17.17;60.83;96770.75;10475235;28;20115;-23
2022/05/15 06:53:39;;;;;;;3.67;2.38;;;;;;;17.29;60.41;96764.91;10465666;28;20082;-22
2022/05/15 06:58:40;;;;;;;4.93;2.35;;;;;;;17.45;60.20;96776.84;10496889;28;20086;-22
2022/05/15 07:03:40;;;;;;;5.10;2.13;;;;;;;17.40;60.51;96770.94;10488925;28;20025;-23
2022/05/15 07:08:42;;;;;;;3.17;2.27;;;;;;;17.42;60.32;96769.25;10454815;28;20120;-22
2022/05/15 07:13:42;;;;;;;3.42;1.73;;;;;;;17.44;60.44;96763.38;10453249;28;20041;-23
2022/05/15 07:18:43;;;;;;;4.82;2.13;;;;;;;17.40;60.63;96755.75;10453591;28;20045;-23
2022/05/15 07:23:44;;;;;;;9.03;3.17;;;;;;;17.31;60.38;96715.19;10472009;28;20441;-23
2022/05/15 07:28:50;;;;;;;2.95;1.80;;;;;;;17.43;60.24;96736.38;10453957;28;20032;-23
2022/05/15 07:33:50;;;;;;;6.05;2.20;;;;;;;17.57;60.41;96739.78;10453075;28;20041;-23
2022/05/15 07:38:51;;;;;;;6.77;2.20;;;;;;;17.55;60.09;96738.06;10453385;28;20086;-23
2022/05/15 07:43:51;;;;;;;4.50;1.80;;;;;;;17.55;60.50;96735.53;10452704;28;20029;-23
2022/05/15 07:48:54;;;;;;;4.20;2.10;;;;;;;17.60;60.63;96734.75;10453176;28;20085;-23
2022/05/15 07:53:54;;;;;;;3.15;2.17;;;;;;;17.56;60.14;96739.78;10476476;28;20047;-24
2022/05/15 07:58:55;;;;;;;2.85;1.80;;;;;;;17.46;61.16;96745.63;10452317;28;20032;-24
2022/05/15 08:03:56;;;;;;;3.78;2.05;;;;;;;17.47;60.58;96739.72;10469441;28;20032;-24
2022/05/15 08:08:58;;;;;;;4.22;1.70;;;;;;;17.59;60.00;96743.16;10485801;28;20590;-23
2022/05/15 08:14:03;;;;;;;6.85;2.10;;;;;;;17.60;60.07;96733.88;10450762;28;20032;-25
2022/05/15 08:24:24;;;;;;;5.80;2.05;;;;;;;17.60;60.07;96736.41;10467791;28;20032;-23
2022/05/15 08:29:25;;;;;;;5.83;1.70;;;;;;;17.83;59.70;96715.38;10491946;28;20504;-23
2022/05/15 08:34:25;;;;;;;5.80;2.05;;;;;;;17.64;60.66;96740.63;10463819;28;20295;-23
2022/05/15 08:39:27;;;;;;;6.35;2.20;;;;;;;17.95;59.45;96722.16;10451479;28;20036;-22
2022/05/15 08:44:34;;;;;;;4.40;2.08;;;;;;;17.61;61.02;96733.03;10450235;28;20041;-23
2022/05/15 08:49:41;;;;;;;5.93;2.28;;;;;;;17.64;61.08;96733.03;10450339;28;20036;-23
2022/05/15 08:55:03;;;;;;;4.10;2.20;;;;;;;17.57;61.12;96737.25;10462644;28;20123;-24
2022/05/15 09:00:10;;;;;;;5.63;2.10;;;;;;;17.72;61.03;96746.56;10491594;28;20510;-23
2022/05/15 09:05:13;;;;;;;3.05;1.88;;;;;;;17.69;60.91;96738.97;10477310;28;20467;-24
2022/05/15 09:10:16;;;;;;;9.30;2.20;;;;;;;17.83;60.86;96735.63;10473176;28;20033;-23
2022/05/15 09:15:22;;;;;;;8.82;2.35;;;;;;;18.04;60.18;96738.25;10449795;28;20037;-21
2022/05/15 09:20:25;;;;;;;4.23;2.37;;;;;;;17.94;60.80;96731.47;10449535;28;20047;-24
2022/05/15 09:25:25;;;;;;;4.32;2.00;;;;;;;18.02;60.48;96734.00;10468998;28;20037;-23
2022/05/15 09:30:36;;;;;;;12.50;2.60;;;;;;;18.34;60.86;96732.41;10449486;28;20402;-23
2022/05/15 09:35:43;;;;;;;8.10;2.28;;;;;;;18.34;59.84;96737.47;10449097;28;20291;-23
2022/05/15 09:46:15;;;;;;;14.82;3.13;;;;;;;18.43;60.08;96727.31;10457473;28;19920;-24
2022/05/15 09:51:27;;;;;;;4.50;2.47;;;;;;;18.10;60.02;96732.34;10457467;28;20149;-24
2022/05/15 09:56:31;;;;;;;5.97;2.17;;;;;;;18.20;60.27;96723.91;10457164;28;20025;-24
2022/05/15 10:01:41;;;;;;;7.20;2.53;;;;;;;18.46;60.82;96717.19;10466505;28;20052;-22
2022/05/15 10:07:04;;;;;;;6.10;2.50;;;;;;;18.53;61.24;96718.88;10497108;28;20036;-23
2022/05/15 10:12:11;;;;;;;3.90;2.10;;;;;;;18.51;59.79;96721.41;10463886;28;20036;-25
2022/05/15 10:17:14;;;;;;;4.95;2.55;;;;;;;18.32;59.43;96714.66;10456400;28;20045;-24
2022/05/15 10:22:36;;;;;;;5.53;2.30;;;;;;;18.56;60.17;96708.72;10469626;28;20445;-23
2022/05/15 10:27:41;;;;;;;2.60;1.75;;;;;;;18.35;59.23;96708.75;10459374;28;20553;-23
2022/05/15 10:32:55;;;;;;;4.57;2.38;;;;;;;18.41;60.02;96708.75;10455624;28;20040;-24
2022/05/15 10:38:07;;;;;;;4.40;1.90;;;;;;;18.41;59.18;96696.91;10455908;28;20455;-23
2022/05/15 10:43:26;;;;;;;2.83;1.83;;;;;;;18.25;59.33;96692.63;10496166;28;20039;-23
2022/05/15 10:48:46;;;;;;;3.15;1.85;;;;;;;18.30;59.33;96692.66;10473477;28;20033;-23
2022/05/15 10:59:34;;;;;;;4.03;1.90;;;;;;;18.47;60.30;96684.22;10454851;28;20533;-23
2022/05/15 11:04:47;;;;;;;2.50;1.85;;;;;;;18.36;59.21;96672.41;10467599;28;20036;-22
2022/05/15 11:10:06;;;;;;;2.45;1.80;;;;;;;18.32;58.98;96674.09;10468067;28;20070;-24
2022/05/15 11:15:31;;;;;;;3.78;1.80;;;;;;;18.38;59.94;96645.34;10495148;28;20101;-24
2022/05/15 11:20:45;;;;;;;2.33;1.70;;;;;;;18.53;59.96;96669.03;10461050;28;20032;-23
2022/05/15 11:26:12;;;;;;;3.35;2.03;;;;;;;18.38;58.98;96660.56;10453677;28;20098;-24
2022/05/15 11:31:17;;;;;;;2.92;2.00;;;;;;;18.38;59.20;96660.56;10453471;28;20052;-22
2022/05/15 11:36:30;;;;;;;2.92;1.83;;;;;;;18.38;58.88;96642.81;10481044;28;20067;-23
2022/05/15 11:41:36;;;;;;;2.15;1.63;;;;;;;18.46;60.09;96643.66;10465744;28;20041;-24
2022/05/15 11:46:46;;;;;;;3.53;1.70;;;;;;;18.48;59.65;96644.50;10459518;28;20047;-23
2022/05/15 11:52:12;;;;;;;2.42;1.90;;;;;;;18.54;60.43;96641.97;10493892;28;20040;-23
2022/05/15 11:57:32;;;;;;;2.00;1.80;;;;;;;18.54;60.52;96645.34;10459609;28;20363;-23
2022/05/15 12:02:35;;;;;;;1.85;1.60;;;;;;;18.64;60.69;96638.56;10469220;28;20442;-23
2022/05/15 12:07:56;;;;;;;1.58;1.25;;;;;;;18.59;59.40;96637.75;10493999;28;20036;-24
2022/05/15 12:13:08;;;;;;;3.50;2.20;;;;;;;18.80;60.49;96627.53;10452489;28;20526;-23
2022/05/15 12:18:18;;;;;;;4.93;1.67;;;;;;;18.86;60.74;96625.84;10451879;28;20122;-23
2022/05/15 12:23:23;;;;;;;2.00;1.60;;;;;;;18.85;60.91;96623.31;10472370;28;20040;-22
2022/05/15 12:28:51;;;;;;;2.88;2.10;;;;;;;18.80;61.06;96622.47;10493669;28;20506;-25
2022/05/15 12:33:52;;;;;;;2.35;1.98;;;;;;;18.87;61.21;96608.91;10480662;28;20041;-24
2022/05/15 12:38:54;;;;;;;3.22;1.52;;;;;;;18.63;59.66;96604.78;10451155;28;20060;-23
2022/05/15 12:43:55;;;;;;;2.10;1.50;;;;;;;18.69;60.75;96593.75;10450773;28;20040;-24
2022/05/15 12:48:56;;;;;;;2.38;1.85;;;;;;;18.85;61.22;96600.47;10451008;28;20048;-23
2022/05/15 12:53:58;;;;;;;3.22;1.90;;;;;;;18.82;61.38;96597.97;10450464;28;20059;-23
2022/05/15 12:59:13;;;;;;;2.83;2.20;;;;;;;18.86;61.36;96592.00;10450413;28;20029;-22
2022/05/15 13:04:25;;;;;;;3.08;1.98;;;;;;;18.85;60.29;96591.16;10461040;28;20032;-23
2022/05/15 13:09:28;;;;;;;3.65;2.20;;;;;;;18.86;60.94;96579.34;10450271;28;20048;-24
2022/05/15 13:14:36;;;;;;;3.67;2.17;;;;;;;18.90;61.15;96586.06;10449809;28;20124;-23
2022/05/15 13:19:42;;;;;;;2.50;2.03;;;;;;;18.87;61.43;96588.63;10449435;28;20036;-23
2022/05/15 13:24:42;;;;;;;2.70;2.00;;;;;;;18.95;61.48;96581.81;10469210;28;20040;-23
2022/05/15 13:29:43;;;;;;;3.95;1.83;;;;;;;18.95;61.52;96581.81;10449868;28;20040;-23
2022/05/15 13:34:46;;;;;;;2.17;1.98;;;;;;;18.81;60.49;96570.88;10471030;28;20044;-24
2022/05/15 13:45:14;;;;;;;1.60;1.50;;;;;;;18.65;59.94;96562.50;10449350;28;20116;-22
2022/05/15 13:50:32;;;;;;;3.50;1.90;;;;;;;18.84;61.90;96563.28;10447657;28;20041;-23
2022/05/15 13:55:39;;;;;;;2.78;1.75;;;;;;;18.87;61.58;96558.19;10468651;28;20074;-24
2022/05/15 14:00:40;;;;;;;;;;;;;;;18.86;61.04;96557.34;10491969;28;20033;-24
2022/05/15 14:05:41;;;;;;;2.00;1.70;;;;;;;18.69;60.17;96543.03;10461376;28;19913;-23
2022/05/15 14:10:42;;;;;;;3.25;1.80;;;;;;;18.79;60.86;96540.47;10469929;28;20097;-24
2022/05/15 14:15:46;;;;;;;2.30;1.60;;;;;;;18.69;60.25;96543.03;10489825;28;20066;-22
2022/05/15 14:20:50;;;;;;;2.38;1.80;;;;;;;18.69;60.23;96537.97;10450045;28;20033;-23
2022/05/15 14:25:52;;;;;;;3.08;1.88;;;;;;;18.97;61.98;96537.00;10472199;28;20060;-24
2022/05/15 14:30:53;;;;;;;2.97;2.20;;;;;;;19.01;62.00;96523.47;10457114;28;20040;-24
2022/05/15 14:36:10;;;;;;;3.05;2.33;;;;;;;18.99;61.87;96528.53;10497373;28;20032;-24
2022/05/15 14:41:11;;;;;;;3.67;2.45;;;;;;;19.05;62.11;96518.34;10471981;28;20037;-22
2022/05/15 14:46:16;;;;;;;4.45;2.22;;;;;;;19.12;61.99;96524.22;10455740;28;20033;-24
2022/05/15 14:51:19;;;;;;;4.60;2.83;;;;;;;19.18;62.07;96519.13;10491822;28;20418;-22
2022/05/15 14:56:21;;;;;;;2.60;2.10;;;;;;;19.21;61.72;96509.84;10470124;28;20059;-22
2022/05/15 15:01:23;;;;;;;4.15;2.17;;;;;;;19.24;61.94;96503.91;10465361;28;20036;-22
2022/05/15 15:06:25;;;;;;;3.45;2.67;;;;;;;19.21;61.85;96503.91;10460894;28;20446;-22
2022/05/15 15:11:27;;;;;;;2.70;2.50;;;;;;;19.20;61.94;96507.31;10455134;28;20033;-23
2022/05/15 15:16:31;;;;;;;4.97;2.47;;;;;;;19.21;62.16;96497.16;10454279;28;20094;-24
2022/05/15 15:21:33;;;;;;;3.58;2.58;;;;;;;19.25;62.02;96505.59;10462198;28;20032;-24
2022/05/15 15:26:34;;;;;;;3.92;2.20;;;;;;;19.23;61.94;96497.97;10466061;28;20029;-24
2022/05/15 15:31:36;;;;;;;3.92;2.33;;;;;;;19.21;62.11;96484.47;10453971;28;20485;-23
2022/05/15 15:36:39;;;;;;;3.22;2.30;;;;;;;19.28;61.97;96480.19;10452712;28;20488;-22
2022/05/15 15:41:39;;;;;;;3.45;2.53;;;;;;;19.30;62.08;96473.38;10453487;28;20112;-22
2022/05/15 15:46:40;;;;;;;4.83;2.73;;;;;;;19.32;61.95;96470.00;10452964;28;20120;-23
2022/05/15 15:51:40;;;;;;;5.80;2.85;;;;;;;19.35;61.92;96467.41;10452891;28;20294;-23
2022/05/15 15:56:43;;;;;;;5.78;2.35;;;;;;;19.33;62.46;96464.06;10452743;28;20091;-23
2022/05/15 16:01:44;;;;;;;2.42;2.15;;;;;;;19.35;62.34;96466.59;10465054;28;20036;-22
2022/05/15 16:06:44;;;;;;;3.22;2.50;;;;;;;19.35;62.32;96453.91;10474943;28;20022;-23
2022/05/15 16:11:47;;;;;;;4.95;2.30;;;;;;;19.35;62.22;96461.53;10452524;28;20056;-24
2022/05/15 16:16:49;;;;;;;4.90;2.80;;;;;;;19.43;61.89;96462.31;10450953;28;20045;-22
2022/05/15 16:21:53;;;;;;;5.60;2.75;;;;;;;19.45;62.14;96448.75;10459648;28;20032;-22
2022/05/15 16:26:58;;;;;;;6.50;2.80;;;;;;;19.48;62.25;96447.84;10474217;28;20074;-22
2022/05/15 16:32:00;;;;;;;3.35;2.50;;;;;;;19.54;61.82;96435.13;10492233;28;20560;-21
2022/05/15 16:37:00;;;;;;;7.68;3.13;;;;;;;19.62;61.69;96430.81;10468619;28;20119;-21
2022/05/15 16:42:00;;;;;;;3.95;3.05;;;;;;;19.59;62.01;96430.84;10450703;28;20115;-22
2022/05/15 16:47:01;;;;;;;4.65;3.08;;;;;;;19.53;62.22;96431.75;10450545;28;20029;-21
2022/05/15 16:52:02;;;;;;;3.50;2.63;;;;;;;19.51;62.56;96427.53;10450993;28;20115;-23
2022/05/15 16:57:02;;;;;;;3.75;2.63;;;;;;;19.49;62.87;96425.00;10451057;28;20034;-22
2022/05/15 17:02:04;;;;;;;6.05;2.40;;;;;;;19.49;62.85;96419.09;10458548;28;20491;-22
2022/05/15 17:07:05;;;;;;;3.72;2.70;;;;;;;19.47;63.20;96426.72;10450640;28;20037;-22
2022/05/15 17:12:06;;;;;;;3.20;2.28;;;;;;;19.41;62.97;96408.16;10450170;28;20107;-22
2022/05/15 17:17:06;;;;;;;3.97;2.83;;;;;;;19.48;63.12;96415.69;10451002;28;20041;-22
2022/05/15 17:22:07;;;;;;;4.20;2.60;;;;;;;19.50;62.47;96416.53;10462812;28;20085;-21
2022/05/15 17:27:08;;;;;;;11.18;3.00;;;;;;;19.58;62.63;96419.84;10491463;28;20025;-22
2022/05/15 17:37:33;;;;;;;4.53;2.65;;;;;;;19.53;62.91;96421.59;10447888;28;20035;-23
2022/05/15 17:42:33;;;;;;;5.93;2.47;;;;;;;19.56;63.12;96428.31;10446721;28;20043;-22
2022/05/15 17:47:34;;;;;;;6.00;2.75;;;;;;;19.55;63.29;96429.19;10459605;28;20531;-22
2022/05/15 17:52:35;;;;;;;8.82;2.90;;;;;;;19.59;63.32;96435.94;10492947;28;20032;-22
2022/05/15 17:57:37;;;;;;;8.07;3.70;;;;;;;19.60;63.70;96437.59;10492885;28;20454;-22
2022/05/15 18:02:38;;;;;;;8.50;2.78;;;;;;;19.57;63.90;96440.16;10496056;28;20064;-24
2022/05/15 18:07:39;;;;;;;5.40;2.85;;;;;;;19.57;64.28;96435.94;10499684;28;20115;-21
2022/05/15 18:12:39;;;;;;;8.20;3.00;;;;;;;19.59;63.39;96435.94;10462928;28;20519;-21
2022/05/15 18:17:39;;;;;;;5.90;2.90;;;;;;;19.61;62.42;96429.94;10463122;28;20025;-22
2022/05/15 18:22:40;;;;;;;17.47;3.87;;;;;;;19.54;63.66;96445.28;10476182;28;20364;-22
2022/05/15 18:27:42;;;;;;;9.82;4.03;;;;;;;19.53;64.78;96448.66;10456120;28;20356;-21
2022/05/15 18:32:43;;;;;;;11.65;3.92;;;;;;;19.54;65.07;96450.34;10458861;28;20097;-22
2022/05/15 18:37:43;;;;;;;6.65;3.50;;;;;;;19.55;64.99;96459.66;10497542;28;20441;-19
2022/05/15 18:42:47;;;;;;;10.80;4.13;;;;;;;19.47;64.87;96461.41;10457050;28;20033;-20
2022/05/15 18:47:47;;;;;;;12.27;3.40;;;;;;;19.35;64.74;96467.41;10455633;28;20302;-21
2022/05/15 18:58:07;;;;;;;5.35;3.00;;;;;;;19.39;63.59;96473.31;10466651;28;20514;-21
2022/05/15 19:03:07;;;;;;;10.13;3.15;;;;;;;19.50;63.37;96481.72;10466557;28;20025;-22
2022/05/15 19:08:08;;;;;;;6.03;2.40;;;;;;;19.31;62.88;96490.28;10491144;28;20543;-22
2022/05/15 19:13:09;;;;;;;9.75;3.35;;;;;;;19.33;65.25;96504.66;10471246;28;20355;-22
2022/05/15 19:18:09;;;;;;;10.40;3.20;;;;;;;19.33;64.72;96501.31;10468169;28;20311;-23
2022/05/15 19:23:10;;;;;;;5.88;3.75;;;;;;;19.33;65.01;96514.00;10459955;28;20056;-23
2022/05/15 19:28:10;;;;;;;9.30;3.50;;;;;;;19.33;64.82;96527.50;10449896;28;20037;-22
2022/05/15 19:33:11;;;;;;;11.05;3.22;;;;;;;19.36;65.52;96537.66;10449812;28;20510;-22
2022/05/15 19:38:12;;;;;;;6.13;2.58;;;;;;;19.47;65.90;96538.44;10449631;28;20048;-22
2022/05/15 19:43:13;;;;;;;8.35;3.08;;;;;;;19.48;66.01;96529.97;10448956;28;20032;-22
2022/05/15 19:48:14;;;;;;;5.95;2.75;;;;;;;19.52;65.71;96530.78;10447086;28;20829;-23
2022/05/15 19:53:15;;;;;;;7.20;3.53;;;;;;;19.59;64.95;96529.88;10449578;28;20033;-23
2022/05/15 19:58:16;;;;;;;7.47;3.03;;;;;;;19.43;63.92;96541.00;10467433;28;20037;-22
2022/05/15 20:03:16;;;;;;;6.67;3.10;;;;;;;19.44;66.14;96555.38;10448810;28;20036;-22
2022/05/15 20:13:37;;;;;;;7.68;2.90;;;;;;;19.45;65.96;96555.38;10448576;28;20041;-22
2022/05/15 20:18:38;;;;;;;6.80;3.15;;;;;;;19.28;65.39;96556.31;10448411;28;20110;-23
2022/05/15 20:23:40;;;;;;;6.95;2.42;;;;;;;19.04;62.90;96566.56;10456480;28;20059;-22
2022/05/15 20:28:41;;;;;;;4.00;2.92;;;;;;;18.82;62.49;96559.91;10449118;28;20064;-24
2022/05/15 20:33:42;;;;;;;5.80;2.70;;;;;;;18.72;62.21;96565.84;10459302;28;20072;-23
2022/05/15 20:38:42;;;;;;;3.67;2.65;;;;;;;19.02;63.10;96566.56;10468645;28;20120;-22
2022/05/15 20:43:42;;;;;;;2.87;2.10;;;;;;;18.98;61.75;96567.44;10455926;28;20128;-22
2022/05/15 20:48:44;;;;;;;4.45;2.75;;;;;;;18.78;61.38;96573.44;10470629;28;20411;-24
2022/05/15 20:53:46;;;;;;;4.32;2.33;;;;;;;18.75;61.46;96573.47;10468874;28;20113;-24
2022/05/15 20:58:47;;;;;;;4.05;2.40;;;;;;;18.86;61.56;96574.25;10472674;28;20036;-22
2022/05/15 21:03:47;;;;;;;4.05;2.10;;;;;;;18.61;61.37;96559.97;10464474;28;20152;-24
2022/05/15 21:08:47;;;;;;;2.60;2.20;;;;;;;18.62;62.00;96574.34;10450683;28;20033;-23
2022/05/15 21:13:51;;;;;;;3.50;2.43;;;;;;;18.53;61.64;96574.38;10450066;28;20291;-26
2022/05/15 21:18:51;;;;;;;2.92;2.50;;;;;;;18.55;62.03;96578.59;10449790;28;20407;-22
2022/05/15 21:23:52;;;;;;;4.67;2.50;;;;;;;18.48;61.85;96597.19;10469786;28;20116;-23
2022/05/15 21:28:52;;;;;;;3.45;2.80;;;;;;;18.50;62.32;96613.22;10449804;28;20036;-23
2022/05/15 21:33:53;;;;;;;2.90;2.30;;;;;;;18.79;62.09;96625.84;10447931;28;20045;-23
2022/05/15 21:44:12;;;;;;;5.35;3.10;;;;;;;19.11;63.84;96621.50;10449212;28;20078;-22
2022/05/15 21:49:14;;;;;;;6.10;2.90;;;;;;;19.25;65.46;96612.19;10449172;28;20075;-22
2022/05/15 21:54:15;;;;;;;5.30;2.92;;;;;;;19.26;65.62;96613.88;10449375;28;20135;-23
2022/05/15 22:04:34;;;;;;;5.28;2.85;;;;;;;19.14;64.67;96624.03;10489130;28;20036;-22
2022/05/15 22:09:35;;;;;;;5.38;2.60;;;;;;;18.95;63.09;96645.25;10478647;28;20450;-24
2022/05/15 22:14:35;;;;;;;3.00;2.40;;;;;;;19.13;63.98;96662.94;10449375;28;20086;-24
2022/05/15 22:19:36;;;;;;;2.50;2.30;;;;;;;18.86;61.56;96645.28;10447504;28;20041;-24
2022/05/15 22:24:36;;;;;;;2.63;2.38;;;;;;;18.79;62.48;96658.81;10468345;28;20037;-23
2022/05/15 22:29:36;;;;;;;3.27;2.30;;;;;;;19.20;63.54;96669.72;10448240;28;20043;-22
2022/05/15 22:34:37;;;;;;;3.50;2.30;;;;;;;18.98;62.18;96670.59;10460423;28;20699;-22
2022/05/15 22:39:38;;;;;;;2.60;2.40;;;;;;;18.85;62.64;96643.59;10479259;28;20029;-23
2022/05/15 22:44:38;;;;;;;5.35;2.42;;;;;;;19.15;63.72;96648.56;10482910;28;20511;-22
2022/05/15 22:49:39;;;;;;;4.00;2.13;;;;;;;19.11;62.94;96657.03;10480074;28;20086;-23
2022/05/15 22:54:39;;;;;;;2.43;2.23;;;;;;;19.20;65.01;96644.34;10466905;28;20710;-23
2022/05/15 22:59:40;;;;;;;5.90;2.47;;;;;;;18.93;63.03;96646.97;10463725;28;20365;-22
2022/05/15 23:10:06;;;;;;;3.67;2.40;;;;;;;19.14;63.82;96629.97;10454706;28;20423;-22
2022/05/15 23:15:08;;;;;;;4.35;2.70;;;;;;;19.18;65.56;96615.56;10454887;28;20033;-23
2022/05/15 23:20:10;;;;;;;4.88;2.92;;;;;;;19.17;62.34;96635.00;10489289;28;20036;-22
2022/05/15 23:25:10;;;;;;;3.85;2.17;;;;;;;19.31;61.90;96640.06;10478106;28;20029;-23
2022/05/15 23:30:13;;;;;;;3.43;2.07;;;;;;;19.03;60.97;96643.53;10454800;28;20033;-23
2022/05/15 23:35:14;;;;;;;2.80;1.98;;;;;;;19.11;62.47;96639.28;10478861;28;20037;-23
2022/05/15 23:40:14;;;;;;;2.65;2.45;;;;;;;19.20;64.46;96618.97;10477102;28;20044;-24
2022/05/15 23:45:16;;;;;;;4.40;2.50;;;;;;;19.36;65.51;96602.81;10452916;28;20033;-23
2022/05/15 23:50:18;;;;;;;2.53;2.20;;;;;;;19.21;63.08;96630.81;10488756;28;20284;-22
2022/05/15 23:55:19;;;;;;;3.97;2.50;;;;;;;19.40;64.91;96627.31;10484006;28;20036;-22
